sensor_id;sensor_type;location;lat;lon;timestamp;temperature;humidity
33815;DHT22;20121;51.910;8.406;2023-05-21T00:01:38;13.80;99.90
33815;DHT22;20121;51.910;8.406;2023-05-21T00:04:04;13.80;99.90
33815;DHT22;20121;51.910;8.406;2023-05-21T00:06:34;13.80;99.90
33815;DHT22;20121;51.910;8.406;2023-05-21T00:09:03;13.80;99.90
33815;DHT22;20121;51.910;8.406;2023-05-21T00:11:29;13.70;99.90
33815;DHT22;20121;51.910;8.406;2023-05-21T00:13:54;13.70;99.90
33815;DHT22;20121;51.910;8.406;2023-05-21T00:16:21;13.70;99.90
33815;DHT22;20121;51.910;8.406;2023-05-21T00:18:46;13.70;99.90
33815;DHT22;20121;51.910;8.406;2023-05-21T00:21:14;13.70;99.90
33815;DHT22;20121;51.910;8.406;2023-05-21T00:23:44;13.70;99.90
33815;DHT22;20121;51.910;8.406;2023-05-21T00:26:10;13.70;99.90
33815;DHT22;20121;51.910;8.406;2023-05-21T00:28:35;13.70;99.90
33815;DHT22;20121;51.910;8.406;2023-05-21T00:31:01;13.70;99.90
33815;DHT22;20121;51.910;8.406;2023-05-21T00:33:26;13.60;99.90
33815;DHT22;20121;51.910;8.406;2023-05-21T00:35:54;13.60;99.90
33815;DHT22;20121;51.910;8.406;2023-05-21T00:38:20;13.60;99.90
33815;DHT22;20121;51.910;8.406;2023-05-21T00:40:46;13.60;99.90
33815;DHT22;20121;51.910;8.406;2023-05-21T00:43:12;13.60;99.90
33815;DHT22;20121;51.910;8.406;2023-05-21T00:45:41;13.40;99.90
33815;DHT22;20121;51.910;8.406;2023-05-21T00:48:12;13.60;99.90
33815;DHT22;20121;51.910;8.406;2023-05-21T00:50:39;13.60;99.90
33815;DHT22;20121;51.910;8.406;2023-05-21T00:53:06;14.40;99.90
33815;DHT22;20121;51.910;8.406;2023-05-21T00:55:38;13.60;99.90
33815;DHT22;20121;51.910;8.406;2023-05-21T00:58:04;13.60;99.90
33815;DHT22;20121;51.910;8.406;2023-05-21T01:00:32;13.30;99.90
33815;DHT22;20121;51.910;8.406;2023-05-21T01:03:01;13.60;99.90
33815;DHT22;20121;51.910;8.406;2023-05-21T01:05:28;13.60;99.90
33815;DHT22;20121;51.910;8.406;2023-05-21T01:07:54;13.70;99.90
33815;DHT22;20121;51.910;8.406;2023-05-21T01:10:21;13.60;99.90
33815;DHT22;20121;51.910;8.406;2023-05-21T01:12:47;13.60;99.90
33815;DHT22;20121;51.910;8.406;2023-05-21T01:15:13;13.50;99.90
33815;DHT22;20121;51.910;8.406;2023-05-21T01:17:39;13.60;99.90
33815;DHT22;20121;51.910;8.406;2023-05-21T01:20:06;13.60;99.90
33815;DHT22;20121;51.910;8.406;2023-05-21T01:22:37;13.60;99.90
33815;DHT22;20121;51.910;8.406;2023-05-21T01:25:06;13.40;99.90
33815;DHT22;20121;51.910;8.406;2023-05-21T01:27:32;13.50;99.90
33815;DHT22;20121;51.910;8.406;2023-05-21T01:29:57;13.50;99.90
33815;DHT22;20121;51.910;8.406;2023-05-21T01:35:08;13.20;99.90
33815;DHT22;20121;51.910;8.406;2023-05-21T01:37:40;13.50;99.90
33815;DHT22;20121;51.910;8.406;2023-05-21T01:40:16;13.50;99.90
33815;DHT22;20121;51.910;8.406;2023-05-21T01:42:44;13.50;99.90
33815;DHT22;20121;51.910;8.406;2023-05-21T01:45:11;13.30;99.90
33815;DHT22;20121;51.910;8.406;2023-05-21T01:47:38;13.50;99.90
33815;DHT22;20121;51.910;8.406;2023-05-21T01:50:05;13.50;99.90
33815;DHT22;20121;51.910;8.406;2023-05-21T01:52:31;13.40;99.90
33815;DHT22;20121;51.910;8.406;2023-05-21T01:54:57;13.20;99.90
33815;DHT22;20121;51.910;8.406;2023-05-21T01:57:24;13.40;99.90
33815;DHT22;20121;51.910;8.406;2023-05-21T01:59:50;13.40;99.90
33815;DHT22;20121;51.910;8.406;2023-05-21T02:02:17;13.40;99.90
33815;DHT22;20121;51.910;8.406;2023-05-21T02:04:43;13.40;99.90
33815;DHT22;20121;51.910;8.406;2023-05-21T02:07:10;13.40;99.90
33815;DHT22;20121;51.910;8.406;2023-05-21T02:09:39;13.40;99.90
33815;DHT22;20121;51.910;8.406;2023-05-21T02:12:05;13.30;99.90
33815;DHT22;20121;51.910;8.406;2023-05-21T02:14:31;13.30;99.90
33815;DHT22;20121;51.910;8.406;2023-05-21T02:16:58;13.30;99.90
33815;DHT22;20121;51.910;8.406;2023-05-21T02:19:25;13.30;99.90
33815;DHT22;20121;51.910;8.406;2023-05-21T02:21:51;13.30;99.90
33815;DHT22;20121;51.910;8.406;2023-05-21T02:24:17;13.20;99.90
33815;DHT22;20121;51.910;8.406;2023-05-21T02:26:42;13.20;99.90
33815;DHT22;20121;51.910;8.406;2023-05-21T02:29:08;13.20;99.90
33815;DHT22;20121;51.910;8.406;2023-05-21T02:31:34;13.20;99.90
33815;DHT22;20121;51.910;8.406;2023-05-21T02:33:59;13.20;99.90
33815;DHT22;20121;51.910;8.406;2023-05-21T02:36:25;13.10;99.90
33815;DHT22;20121;51.910;8.406;2023-05-21T02:38:53;13.10;99.90
33815;DHT22;20121;51.910;8.406;2023-05-21T02:41:19;13.10;99.90
33815;DHT22;20121;51.910;8.406;2023-05-21T02:43:45;13.10;99.90
33815;DHT22;20121;51.910;8.406;2023-05-21T02:46:11;13.10;99.90
33815;DHT22;20121;51.910;8.406;2023-05-21T02:48:37;13.00;99.90
33815;DHT22;20121;51.910;8.406;2023-05-21T02:51:03;13.00;99.90
33815;DHT22;20121;51.910;8.406;2023-05-21T02:53:28;13.00;99.90
33815;DHT22;20121;51.910;8.406;2023-05-21T02:55:54;13.00;99.90
33815;DHT22;20121;51.910;8.406;2023-05-21T02:58:20;13.00;99.90
33815;DHT22;20121;51.910;8.406;2023-05-21T03:00:47;13.00;99.90
33815;DHT22;20121;51.910;8.406;2023-05-21T03:03:13;13.00;99.90
33815;DHT22;20121;51.910;8.406;2023-05-21T03:05:39;13.00;99.90
33815;DHT22;20121;51.910;8.406;2023-05-21T03:08:04;12.90;99.90
33815;DHT22;20121;51.910;8.406;2023-05-21T03:10:30;12.90;99.90
33815;DHT22;20121;51.910;8.406;2023-05-21T03:12:55;12.90;99.90
33815;DHT22;20121;51.910;8.406;2023-05-21T03:15:21;12.90;99.90
33815;DHT22;20121;51.910;8.406;2023-05-21T03:17:49;12.90;99.90
33815;DHT22;20121;51.910;8.406;2023-05-21T03:20:14;12.90;99.90
33815;DHT22;20121;51.910;8.406;2023-05-21T03:22:43;12.80;99.90
33815;DHT22;20121;51.910;8.406;2023-05-21T03:25:10;12.50;99.90
33815;DHT22;20121;51.910;8.406;2023-05-21T03:27:37;12.80;99.90
33815;DHT22;20121;51.910;8.406;2023-05-21T03:30:03;12.80;99.90
33815;DHT22;20121;51.910;8.406;2023-05-21T03:32:29;12.80;99.90
33815;DHT22;20121;51.910;8.406;2023-05-21T03:34:54;12.60;99.90
33815;DHT22;20121;51.910;8.406;2023-05-21T03:37:20;12.70;99.90
33815;DHT22;20121;51.910;8.406;2023-05-21T03:39:46;12.70;99.90
33815;DHT22;20121;51.910;8.406;2023-05-21T03:42:11;12.70;99.90
33815;DHT22;20121;51.910;8.406;2023-05-21T03:44:38;12.70;99.90
33815;DHT22;20121;51.910;8.406;2023-05-21T03:47:04;12.70;99.90
33815;DHT22;20121;51.910;8.406;2023-05-21T03:49:30;12.70;99.90
33815;DHT22;20121;51.910;8.406;2023-05-21T03:51:55;12.70;99.90
33815;DHT22;20121;51.910;8.406;2023-05-21T03:54:21;12.70;99.90
33815;DHT22;20121;51.910;8.406;2023-05-21T03:56:47;12.70;99.90
33815;DHT22;20121;51.910;8.406;2023-05-21T03:59:12;12.80;99.90
33815;DHT22;20121;51.910;8.406;2023-05-21T04:01:38;12.80;99.90
33815;DHT22;20121;51.910;8.406;2023-05-21T04:04:04;12.80;99.90
33815;DHT22;20121;51.910;8.406;2023-05-21T04:06:29;12.80;99.90
33815;DHT22;20121;51.910;8.406;2023-05-21T04:08:55;12.80;99.90
33815;DHT22;20121;51.910;8.406;2023-05-21T04:11:21;12.80;99.90
33815;DHT22;20121;51.910;8.406;2023-05-21T04:13:46;12.80;99.90
33815;DHT22;20121;51.910;8.406;2023-05-21T04:16:12;12.80;99.90
33815;DHT22;20121;51.910;8.406;2023-05-21T04:18:39;12.80;99.90
33815;DHT22;20121;51.910;8.406;2023-05-21T04:21:06;12.70;99.90
33815;DHT22;20121;51.910;8.406;2023-05-21T04:23:32;12.80;99.90
33815;DHT22;20121;51.910;8.406;2023-05-21T04:25:58;12.90;99.90
33815;DHT22;20121;51.910;8.406;2023-05-21T04:28:23;12.90;99.90
33815;DHT22;20121;51.910;8.406;2023-05-21T04:30:49;12.90;99.90
33815;DHT22;20121;51.910;8.406;2023-05-21T04:33:15;13.00;99.90
33815;DHT22;20121;51.910;8.406;2023-05-21T04:35:49;13.00;99.90
33815;DHT22;20121;51.910;8.406;2023-05-21T04:38:16;13.00;99.90
33815;DHT22;20121;51.910;8.406;2023-05-21T04:40:49;13.10;99.90
33815;DHT22;20121;51.910;8.406;2023-05-21T04:43:17;13.10;99.90
33815;DHT22;20121;51.910;8.406;2023-05-21T04:45:43;13.10;99.90
33815;DHT22;20121;51.910;8.406;2023-05-21T04:48:09;13.10;99.90
33815;DHT22;20121;51.910;8.406;2023-05-21T04:50:34;13.10;99.90
33815;DHT22;20121;51.910;8.406;2023-05-21T04:53:01;13.20;99.90
33815;DHT22;20121;51.910;8.406;2023-05-21T04:55:27;13.20;99.90
33815;DHT22;20121;51.910;8.406;2023-05-21T04:57:53;13.20;99.90
33815;DHT22;20121;51.910;8.406;2023-05-21T05:00:19;13.20;99.90
33815;DHT22;20121;51.910;8.406;2023-05-21T05:02:45;13.30;99.90
33815;DHT22;20121;51.910;8.406;2023-05-21T05:05:10;13.30;99.90
33815;DHT22;20121;51.910;8.406;2023-05-21T05:07:36;13.30;99.90
33815;DHT22;20121;51.910;8.406;2023-05-21T05:10:02;13.30;99.90
33815;DHT22;20121;51.910;8.406;2023-05-21T05:12:27;13.30;99.90
33815;DHT22;20121;51.910;8.406;2023-05-21T05:14:53;13.30;99.90
33815;DHT22;20121;51.910;8.406;2023-05-21T05:17:19;13.30;99.90
33815;DHT22;20121;51.910;8.406;2023-05-21T05:19:44;13.40;99.90
33815;DHT22;20121;51.910;8.406;2023-05-21T05:22:10;13.40;99.90
33815;DHT22;20121;51.910;8.406;2023-05-21T05:24:36;13.50;99.90
33815;DHT22;20121;51.910;8.406;2023-05-21T05:27:01;13.50;99.90
33815;DHT22;20121;51.910;8.406;2023-05-21T05:29:27;13.50;99.90
33815;DHT22;20121;51.910;8.406;2023-05-21T05:31:52;13.50;99.90
33815;DHT22;20121;51.910;8.406;2023-05-21T05:34:18;13.60;99.90
33815;DHT22;20121;51.910;8.406;2023-05-21T05:36:44;13.60;99.90
33815;DHT22;20121;51.910;8.406;2023-05-21T05:39:10;13.60;99.90
33815;DHT22;20121;51.910;8.406;2023-05-21T05:41:35;13.60;99.90
33815;DHT22;20121;51.910;8.406;2023-05-21T05:44:01;13.70;99.90
33815;DHT22;20121;51.910;8.406;2023-05-21T05:46:28;13.70;99.90
33815;DHT22;20121;51.910;8.406;2023-05-21T05:48:53;13.70;99.90
33815;DHT22;20121;51.910;8.406;2023-05-21T05:51:19;13.70;99.90
33815;DHT22;20121;51.910;8.406;2023-05-21T05:53:45;13.70;99.90
33815;DHT22;20121;51.910;8.406;2023-05-21T05:56:10;13.70;99.90
33815;DHT22;20121;51.910;8.406;2023-05-21T05:58:36;13.70;99.90
33815;DHT22;20121;51.910;8.406;2023-05-21T06:01:01;13.80;99.90
33815;DHT22;20121;51.910;8.406;2023-05-21T06:03:27;13.80;99.90
33815;DHT22;20121;51.910;8.406;2023-05-21T06:05:54;13.80;99.90
33815;DHT22;20121;51.910;8.406;2023-05-21T06:08:19;13.80;99.90
33815;DHT22;20121;51.910;8.406;2023-05-21T06:10:45;13.90;99.90
33815;DHT22;20121;51.910;8.406;2023-05-21T06:13:11;13.90;99.90
33815;DHT22;20121;51.910;8.406;2023-05-21T06:15:36;13.90;99.90
33815;DHT22;20121;51.910;8.406;2023-05-21T06:18:03;13.90;99.90
33815;DHT22;20121;51.910;8.406;2023-05-21T06:20:29;14.00;99.90
33815;DHT22;20121;51.910;8.406;2023-05-21T06:22:54;14.00;99.90
33815;DHT22;20121;51.910;8.406;2023-05-21T06:25:20;14.00;99.90
33815;DHT22;20121;51.910;8.406;2023-05-21T06:27:46;14.10;99.90
33815;DHT22;20121;51.910;8.406;2023-05-21T06:30:11;14.10;99.90
33815;DHT22;20121;51.910;8.406;2023-05-21T06:32:37;14.20;99.90
33815;DHT22;20121;51.910;8.406;2023-05-21T06:35:03;14.10;99.90
33815;DHT22;20121;51.910;8.406;2023-05-21T06:37:29;14.20;99.90
33815;DHT22;20121;51.910;8.406;2023-05-21T06:39:54;14.30;99.90
33815;DHT22;20121;51.910;8.406;2023-05-21T06:42:20;14.30;99.90
33815;DHT22;20121;51.910;8.406;2023-05-21T06:44:47;14.30;99.90
33815;DHT22;20121;51.910;8.406;2023-05-21T06:47:13;14.40;99.90
33815;DHT22;20121;51.910;8.406;2023-05-21T06:49:38;14.40;99.90
33815;DHT22;20121;51.910;8.406;2023-05-21T06:52:04;14.50;99.90
33815;DHT22;20121;51.910;8.406;2023-05-21T06:54:30;14.50;99.90
33815;DHT22;20121;51.910;8.406;2023-05-21T06:56:56;14.60;99.90
33815;DHT22;20121;51.910;8.406;2023-05-21T06:59:22;14.60;99.90
33815;DHT22;20121;51.910;8.406;2023-05-21T07:01:48;14.70;99.90
33815;DHT22;20121;51.910;8.406;2023-05-21T07:04:13;14.70;99.90
33815;DHT22;20121;51.910;8.406;2023-05-21T07:06:39;14.70;99.90
33815;DHT22;20121;51.910;8.406;2023-05-21T07:09:05;14.80;99.90
33815;DHT22;20121;51.910;8.406;2023-05-21T07:11:31;14.80;99.90
33815;DHT22;20121;51.910;8.406;2023-05-21T07:13:58;14.90;99.90
33815;DHT22;20121;51.910;8.406;2023-05-21T07:16:26;15.00;99.90
33815;DHT22;20121;51.910;8.406;2023-05-21T07:18:52;15.00;99.90
33815;DHT22;20121;51.910;8.406;2023-05-21T07:21:18;15.10;99.90
33815;DHT22;20121;51.910;8.406;2023-05-21T07:23:43;15.10;99.90
33815;DHT22;20121;51.910;8.406;2023-05-21T07:26:09;15.20;99.90
33815;DHT22;20121;51.910;8.406;2023-05-21T07:28:35;15.30;99.90
33815;DHT22;20121;51.910;8.406;2023-05-21T07:31:01;15.30;99.90
33815;DHT22;20121;51.910;8.406;2023-05-21T07:33:27;15.40;99.90
33815;DHT22;20121;51.910;8.406;2023-05-21T07:35:52;15.40;99.90
33815;DHT22;20121;51.910;8.406;2023-05-21T07:38:18;15.50;99.90
33815;DHT22;20121;51.910;8.406;2023-05-21T07:40:44;15.70;99.90
33815;DHT22;20121;51.910;8.406;2023-05-21T07:43:09;15.80;99.90
33815;DHT22;20121;51.910;8.406;2023-05-21T07:45:35;15.80;99.90
33815;DHT22;20121;51.910;8.406;2023-05-21T07:48:00;15.90;99.90
33815;DHT22;20121;51.910;8.406;2023-05-21T07:50:27;16.00;99.90
33815;DHT22;20121;51.910;8.406;2023-05-21T07:52:52;16.00;99.90
33815;DHT22;20121;51.910;8.406;2023-05-21T07:55:18;17.50;99.90
33815;DHT22;20121;51.910;8.406;2023-05-21T07:57:43;16.10;99.90
33815;DHT22;20121;51.910;8.406;2023-05-21T08:00:10;16.20;99.90
33815;DHT22;20121;51.910;8.406;2023-05-21T08:02:38;16.30;99.90
33815;DHT22;20121;51.910;8.406;2023-05-21T08:05:04;16.90;99.90
33815;DHT22;20121;51.910;8.406;2023-05-21T08:07:30;16.60;99.90
33815;DHT22;20121;51.910;8.406;2023-05-21T08:09:57;16.70;99.90
33815;DHT22;20121;51.910;8.406;2023-05-21T08:12:23;16.80;99.90
33815;DHT22;20121;51.910;8.406;2023-05-21T08:14:48;16.80;99.90
33815;DHT22;20121;51.910;8.406;2023-05-21T08:17:14;16.90;99.90
33815;DHT22;20121;51.910;8.406;2023-05-21T08:19:40;16.90;99.90
33815;DHT22;20121;51.910;8.406;2023-05-21T08:22:06;17.00;99.90
33815;DHT22;20121;51.910;8.406;2023-05-21T08:24:32;17.10;99.90
33815;DHT22;20121;51.910;8.406;2023-05-21T08:26:58;17.20;99.90
33815;DHT22;20121;51.910;8.406;2023-05-21T08:29:24;17.30;99.90
33815;DHT22;20121;51.910;8.406;2023-05-21T08:31:50;17.40;99.90
33815;DHT22;20121;51.910;8.406;2023-05-21T08:34:15;17.50;99.90
33815;DHT22;20121;51.910;8.406;2023-05-21T08:36:42;17.50;99.90
33815;DHT22;20121;51.910;8.406;2023-05-21T08:39:10;17.60;99.90
33815;DHT22;20121;51.910;8.406;2023-05-21T08:41:37;17.60;99.90
33815;DHT22;20121;51.910;8.406;2023-05-21T08:44:10;17.60;99.90
33815;DHT22;20121;51.910;8.406;2023-05-21T08:46:38;17.70;99.90
33815;DHT22;20121;51.910;8.406;2023-05-21T08:49:04;17.80;99.90
33815;DHT22;20121;51.910;8.406;2023-05-21T08:51:30;17.80;99.90
33815;DHT22;20121;51.910;8.406;2023-05-21T08:53:56;17.90;99.90
33815;DHT22;20121;51.910;8.406;2023-05-21T08:56:24;17.90;99.90
33815;DHT22;20121;51.910;8.406;2023-05-21T08:58:51;18.00;99.90
33815;DHT22;20121;51.910;8.406;2023-05-21T09:01:17;18.20;99.90
33815;DHT22;20121;51.910;8.406;2023-05-21T09:03:44;18.30;99.90
33815;DHT22;20121;51.910;8.406;2023-05-21T09:06:12;18.40;99.90
33815;DHT22;20121;51.910;8.406;2023-05-21T09:08:44;18.50;99.90
33815;DHT22;20121;51.910;8.406;2023-05-21T09:11:10;18.70;99.90
33815;DHT22;20121;51.910;8.406;2023-05-21T09:13:37;18.70;99.90
33815;DHT22;20121;51.910;8.406;2023-05-21T09:16:05;18.80;99.90
33815;DHT22;20121;51.910;8.406;2023-05-21T09:18:31;18.90;99.90
33815;DHT22;20121;51.910;8.406;2023-05-21T09:20:57;19.00;99.90
33815;DHT22;20121;51.910;8.406;2023-05-21T09:23:23;19.20;99.90
33815;DHT22;20121;51.910;8.406;2023-05-21T09:25:49;19.40;99.90
33815;DHT22;20121;51.910;8.406;2023-05-21T09:28:17;19.50;99.90
33815;DHT22;20121;51.910;8.406;2023-05-21T09:30:47;19.70;99.90
33815;DHT22;20121;51.910;8.406;2023-05-21T09:33:33;19.80;99.90
33815;DHT22;20121;51.910;8.406;2023-05-21T09:35:59;20.00;99.90
33815;DHT22;20121;51.910;8.406;2023-05-21T09:38:26;20.10;99.90
33815;DHT22;20121;51.910;8.406;2023-05-21T09:40:54;20.30;99.90
33815;DHT22;20121;51.910;8.406;2023-05-21T09:43:23;20.50;99.90
33815;DHT22;20121;51.910;8.406;2023-05-21T09:45:53;20.70;99.90
33815;DHT22;20121;51.910;8.406;2023-05-21T09:51:15;21.10;99.90
33815;DHT22;20121;51.910;8.406;2023-05-21T09:53:52;21.40;99.90
33815;DHT22;20121;51.910;8.406;2023-05-21T09:56:23;21.70;99.90
33815;DHT22;20121;51.910;8.406;2023-05-21T09:58:55;21.70;99.90
33815;DHT22;20121;51.910;8.406;2023-05-21T10:01:23;21.90;99.90
33815;DHT22;20121;51.910;8.406;2023-05-21T10:04:01;22.00;99.90
33815;DHT22;20121;51.910;8.406;2023-05-21T10:06:28;22.10;99.90
33815;DHT22;20121;51.910;8.406;2023-05-21T10:08:56;22.30;99.90
33815;DHT22;20121;51.910;8.406;2023-05-21T10:11:24;22.50;99.90
33815;DHT22;20121;51.910;8.406;2023-05-21T10:14:04;22.50;99.90
33815;DHT22;20121;51.910;8.406;2023-05-21T10:16:32;22.50;99.90
33815;DHT22;20121;51.910;8.406;2023-05-21T10:18:59;22.50;99.90
33815;DHT22;20121;51.910;8.406;2023-05-21T10:21:25;22.60;99.90
33815;DHT22;20121;51.910;8.406;2023-05-21T10:23:54;22.70;99.90
33815;DHT22;20121;51.910;8.406;2023-05-21T10:26:22;23.00;99.90
33815;DHT22;20121;51.910;8.406;2023-05-21T10:28:49;23.10;99.90
33815;DHT22;20121;51.910;8.406;2023-05-21T10:31:15;23.40;99.90
33815;DHT22;20121;51.910;8.406;2023-05-21T10:33:42;23.80;99.90
33815;DHT22;20121;51.910;8.406;2023-05-21T10:36:08;24.00;99.90
33815;DHT22;20121;51.910;8.406;2023-05-21T10:38:35;24.30;99.90
33815;DHT22;20121;51.910;8.406;2023-05-21T10:41:02;24.50;99.90
33815;DHT22;20121;51.910;8.406;2023-05-21T10:49:34;24.50;99.10
33815;DHT22;20121;51.910;8.406;2023-05-21T10:54:59;24.30;99.30
33815;DHT22;20121;51.910;8.406;2023-05-21T11:00:23;24.20;99.90
33815;DHT22;20121;51.910;8.406;2023-05-21T11:02:50;24.30;99.60
33815;DHT22;20121;51.910;8.406;2023-05-21T11:05:40;24.30;99.60
33815;DHT22;20121;51.910;8.406;2023-05-21T11:08:23;24.30;99.30
33815;DHT22;20121;51.910;8.406;2023-05-21T11:10:56;24.30;99.30
33815;DHT22;20121;51.910;8.406;2023-05-21T11:13:23;24.20;99.30
33815;DHT22;20121;51.910;8.406;2023-05-21T11:21:16;24.00;99.80
33815;DHT22;20121;51.910;8.406;2023-05-21T11:23:52;23.90;99.80
33815;DHT22;20121;51.910;8.406;2023-05-21T11:26:21;23.80;99.90
33815;DHT22;20121;51.910;8.406;2023-05-21T11:29:07;23.80;99.90
33815;DHT22;20121;51.910;8.406;2023-05-21T11:31:34;23.90;99.90
33815;DHT22;20121;51.910;8.406;2023-05-21T11:34:18;23.90;99.90
33815;DHT22;20121;51.910;8.406;2023-05-21T11:36:48;23.90;99.90
33815;DHT22;20121;51.910;8.406;2023-05-21T11:39:18;23.80;99.90
33815;DHT22;20121;51.910;8.406;2023-05-21T11:41:50;23.70;99.90
33815;DHT22;20121;51.910;8.406;2023-05-21T11:44:16;23.70;99.90
33815;DHT22;20121;51.910;8.406;2023-05-21T11:46:42;23.60;99.90
33815;DHT22;20121;51.910;8.406;2023-05-21T11:49:08;23.60;99.90
33815;DHT22;20121;51.910;8.406;2023-05-21T11:51:35;23.60;99.90
33815;DHT22;20121;51.910;8.406;2023-05-21T11:56:27;23.60;99.90
33815;DHT22;20121;51.910;8.406;2023-05-21T11:58:53;23.60;99.90
33815;DHT22;20121;51.910;8.406;2023-05-21T12:01:23;23.60;99.90
33815;DHT22;20121;51.910;8.406;2023-05-21T12:03:49;23.60;99.90
33815;DHT22;20121;51.910;8.406;2023-05-21T12:06:14;23.60;99.90
33815;DHT22;20121;51.910;8.406;2023-05-21T12:08:41;23.70;99.90
33815;DHT22;20121;51.910;8.406;2023-05-21T12:11:07;23.80;99.90
33815;DHT22;20121;51.910;8.406;2023-05-21T12:13:33;24.00;99.90
33815;DHT22;20121;51.910;8.406;2023-05-21T12:15:58;24.10;99.90
33815;DHT22;20121;51.910;8.406;2023-05-21T12:18:25;24.20;99.90
33815;DHT22;20121;51.910;8.406;2023-05-21T12:20:51;24.30;99.90
33815;DHT22;20121;51.910;8.406;2023-05-21T12:23:22;24.30;99.90
33815;DHT22;20121;51.910;8.406;2023-05-21T12:25:48;24.20;99.90
33815;DHT22;20121;51.910;8.406;2023-05-21T12:28:14;24.10;99.90
33815;DHT22;20121;51.910;8.406;2023-05-21T12:30:40;24.00;99.90
33815;DHT22;20121;51.910;8.406;2023-05-21T12:33:06;23.90;99.90
33815;DHT22;20121;51.910;8.406;2023-05-21T12:35:31;23.20;99.90
33815;DHT22;20121;51.910;8.406;2023-05-21T12:37:59;23.70;99.90
33815;DHT22;20121;51.910;8.406;2023-05-21T12:40:37;23.60;99.90
33815;DHT22;20121;51.910;8.406;2023-05-21T12:43:03;23.60;99.90
33815;DHT22;20121;51.910;8.406;2023-05-21T12:45:31;23.60;99.90
33815;DHT22;20121;51.910;8.406;2023-05-21T12:47:59;23.70;99.90
33815;DHT22;20121;51.910;8.406;2023-05-21T12:50:25;23.80;99.90
33815;DHT22;20121;51.910;8.406;2023-05-21T12:52:55;23.90;99.90
33815;DHT22;20121;51.910;8.406;2023-05-21T12:55:23;24.00;99.90
33815;DHT22;20121;51.910;8.406;2023-05-21T12:58:02;24.00;99.90
33815;DHT22;20121;51.910;8.406;2023-05-21T13:00:33;24.00;99.90
33815;DHT22;20121;51.910;8.406;2023-05-21T13:02:59;24.00;99.90
33815;DHT22;20121;51.910;8.406;2023-05-21T13:05:26;24.00;99.90
33815;DHT22;20121;51.910;8.406;2023-05-21T13:07:51;24.10;99.90
33815;DHT22;20121;51.910;8.406;2023-05-21T13:10:17;24.10;99.90
33815;DHT22;20121;51.910;8.406;2023-05-21T13:12:43;24.20;99.90
33815;DHT22;20121;51.910;8.406;2023-05-21T13:15:09;24.80;99.90
33815;DHT22;20121;51.910;8.406;2023-05-21T13:17:35;24.50;99.90
33815;DHT22;20121;51.910;8.406;2023-05-21T13:22:31;24.70;99.90
33815;DHT22;20121;51.910;8.406;2023-05-21T13:24:57;24.50;99.90
33815;DHT22;20121;51.910;8.406;2023-05-21T13:27:23;25.00;99.90
33815;DHT22;20121;51.910;8.406;2023-05-21T13:29:48;25.00;99.80
33815;DHT22;20121;51.910;8.406;2023-05-21T13:32:14;24.80;99.60
33815;DHT22;20121;51.910;8.406;2023-05-21T13:34:40;25.00;99.70
33815;DHT22;20121;51.910;8.406;2023-05-21T13:37:05;25.00;99.90
33815;DHT22;20121;51.910;8.406;2023-05-21T13:39:31;24.90;99.60
33815;DHT22;20121;51.910;8.406;2023-05-21T13:41:56;25.00;99.70
33815;DHT22;20121;51.910;8.406;2023-05-21T13:44:23;25.00;99.60
33815;DHT22;20121;51.910;8.406;2023-05-21T13:46:49;25.00;99.90
33815;DHT22;20121;51.910;8.406;2023-05-21T13:49:14;25.10;99.70
33815;DHT22;20121;51.910;8.406;2023-05-21T13:51:40;25.20;99.70
33815;DHT22;20121;51.910;8.406;2023-05-21T13:54:06;25.30;99.60
33815;DHT22;20121;51.910;8.406;2023-05-21T13:56:32;25.40;99.60
33815;DHT22;20121;51.910;8.406;2023-05-21T13:58:58;25.50;99.70
33815;DHT22;20121;51.910;8.406;2023-05-21T14:01:24;25.60;99.50
33815;DHT22;20121;51.910;8.406;2023-05-21T14:03:50;25.60;99.40
33815;DHT22;20121;51.910;8.406;2023-05-21T14:06:15;25.70;99.00
33815;DHT22;20121;51.910;8.406;2023-05-21T14:08:41;25.40;99.00
33815;DHT22;20121;51.910;8.406;2023-05-21T14:11:06;25.80;99.30
33815;DHT22;20121;51.910;8.406;2023-05-21T14:13:32;25.80;99.50
33815;DHT22;20121;51.910;8.406;2023-05-21T14:15:58;25.80;98.90
33815;DHT22;20121;51.910;8.406;2023-05-21T14:18:23;25.80;99.30
33815;DHT22;20121;51.910;8.406;2023-05-21T14:20:49;25.70;98.90
33815;DHT22;20121;51.910;8.406;2023-05-21T14:23:15;25.60;99.20
33815;DHT22;20121;51.910;8.406;2023-05-21T14:25:41;25.60;99.70
33815;DHT22;20121;51.910;8.406;2023-05-21T14:28:07;25.50;99.80
33815;DHT22;20121;51.910;8.406;2023-05-21T14:30:32;25.60;99.80
33815;DHT22;20121;51.910;8.406;2023-05-21T14:32:58;25.60;99.50
33815;DHT22;20121;51.910;8.406;2023-05-21T14:35:24;25.60;99.50
33815;DHT22;20121;51.910;8.406;2023-05-21T14:37:49;25.60;99.90
33815;DHT22;20121;51.910;8.406;2023-05-21T14:40:15;25.70;99.90
33815;DHT22;20121;51.910;8.406;2023-05-21T14:42:41;25.70;99.30
33815;DHT22;20121;51.910;8.406;2023-05-21T14:45:07;26.00;99.90
33815;DHT22;20121;51.910;8.406;2023-05-21T14:47:32;25.60;99.60
33815;DHT22;20121;51.910;8.406;2023-05-21T14:49:58;25.50;99.40
33815;DHT22;20121;51.910;8.406;2023-05-21T14:52:24;25.50;99.50
33815;DHT22;20121;51.910;8.406;2023-05-21T14:54:49;25.50;99.50
33815;DHT22;20121;51.910;8.406;2023-05-21T14:57:15;25.50;99.60
33815;DHT22;20121;51.910;8.406;2023-05-21T14:59:40;25.50;99.70
33815;DHT22;20121;51.910;8.406;2023-05-21T15:02:06;25.60;99.80
33815;DHT22;20121;51.910;8.406;2023-05-21T15:04:32;25.60;99.40
33815;DHT22;20121;51.910;8.406;2023-05-21T15:06:57;25.60;99.50
33815;DHT22;20121;51.910;8.406;2023-05-21T15:09:23;25.50;99.50
33815;DHT22;20121;51.910;8.406;2023-05-21T15:11:49;25.50;99.60
33815;DHT22;20121;51.910;8.406;2023-05-21T15:14:17;25.50;99.90
33815;DHT22;20121;51.910;8.406;2023-05-21T15:16:43;25.50;99.90
33815;DHT22;20121;51.910;8.406;2023-05-21T15:19:09;25.50;99.90
33815;DHT22;20121;51.910;8.406;2023-05-21T15:21:36;25.40;99.80
33815;DHT22;20121;51.910;8.406;2023-05-21T15:24:02;25.30;99.80
33815;DHT22;20121;51.910;8.406;2023-05-21T15:26:27;25.20;99.90
33815;DHT22;20121;51.910;8.406;2023-05-21T15:28:53;25.10;99.90
33815;DHT22;20121;51.910;8.406;2023-05-21T15:31:19;25.10;99.90
33815;DHT22;20121;51.910;8.406;2023-05-21T15:33:44;25.10;99.90
33815;DHT22;20121;51.910;8.406;2023-05-21T15:36:10;25.00;99.90
33815;DHT22;20121;51.910;8.406;2023-05-21T15:38:35;25.10;99.90
33815;DHT22;20121;51.910;8.406;2023-05-21T15:41:01;25.10;99.90
33815;DHT22;20121;51.910;8.406;2023-05-21T15:43:27;25.20;99.90
33815;DHT22;20121;51.910;8.406;2023-05-21T15:45:52;25.20;99.90
33815;DHT22;20121;51.910;8.406;2023-05-21T15:48:18;25.20;99.90
33815;DHT22;20121;51.910;8.406;2023-05-21T15:50:50;25.30;99.90
33815;DHT22;20121;51.910;8.406;2023-05-21T15:53:15;25.30;99.90
33815;DHT22;20121;51.910;8.406;2023-05-21T15:55:41;25.30;99.90